Arklow Raider — EIXS — position and weather

sailwx.info

Track history (hours):
 
Tides and Currents Weather Stations Pressure Air Temp Water Temp Dewpoint Dewpoint Depression Visibility Wind Speed Wind Dir Waves Ship Positions

Arklow Raider

Last reported at 2017-May-23 10:00 UTC. Time now 2017-May-27 21:22 UTC.
Position N 51°35' W 010°20'.

Length 90 m; draft 4 m.

Type: Cargo ship. MMSI: 250001268.

Date/timePositionNaut miles runAvg speedWind from/ knotsBaromVisibWave heightAir tempDewpointWater temp
2017-May-23 10:00N 51°35' W 010°20'611.7
2017-May-23 09:31N 51°32' W 010°12'611.5
2017-May-23 09:01N 51°29' W 010°04'611.5
2017-May-23 08:31N 51°26' W 009°55'611.6
2017-May-23 08:00N 51°23' W 009°47'611.8
2017-May-23 07:31N 51°21' W 009°39'611.4
2017-May-23 07:00N 51°22' W 009°30'611.4
2017-May-23 06:31N 51°23' W 009°21'611.4
2017-May-23 06:00N 51°25' W 009°13'611.4
2017-May-23 05:30N 51°27' W 009°04'611.2
2017-May-23 05:00N 51°29' W 008°56'611.3
2017-May-23 04:31N 51°31' W 008°47'510.9
2017-May-23 04:00N 51°33' W 008°39'510.7
2017-May-23 03:31N 51°34' W 008°31'510.5
2017-May-23 03:00N 51°37' W 008°23'510.6
2017-May-23 02:30N 51°40' W 008°16'510.8
2017-May-23 02:00N 51°42' W 008°08'510.8
2017-May-23 01:30N 51°45' W 008°01'510.5
2017-May-23 01:00N 51°48' W 007°53'510.9
2017-May-23 00:30N 51°50' W 007°46'611.1
2017-May-23 00:01N 51°53' W 007°38'611.4
2017-May-22 23:30N 51°56' W 007°30'611.6
2017-May-22 23:00N 51°59' W 007°22'611.6
2017-May-22 22:30N 52°02' W 007°14'611.5
2017-May-22 22:01N 52°05' W 007°06'611.4
2017-May-22 21:31N 52°08' W 006°58'5 9.8
2017-May-22 21:00N 52°13' W 006°56'4 8.7
2017-May-22 20:30N 52°16' W 007°01'1 1.0
2017-May-22 20:00N 52°16' W 007°02'0 0.0
2017-May-22 19:27N 52°16' W 007°02'0 0.0
2017-May-22 19:00N 52°16' W 007°02'0 0.0
2017-May-22 18:27N 52°16' W 007°02'0 0.0
2017-May-22 17:57N 52°16' W 007°02'0 0.0
2017-May-22 17:30N 52°16' W 007°02'0 0.0
2017-May-22 17:00N 52°16' W 007°02'0 0.0
2017-May-22 16:30N 52°16' W 007°02'0 0.0
2017-May-22 16:00N 52°16' W 007°02'0 0.0
2017-May-22 15:30N 52°16' W 007°02'0 0.0
2017-May-22 14:54N 52°16' W 007°02'0 0.0
2017-May-22 13:59N 52°16' W 007°02'0 0.0
2017-May-22 13:27N 52°16' W 007°02'0 0.0
2017-May-22 12:59N 52°16' W 007°02'0 0.0
2017-May-22 12:29N 52°16' W 007°02'0 0.0
2017-May-22 12:00N 52°16' W 007°02'0 0.0
2017-May-22 11:29N 52°16' W 007°02'0 0.0
2017-May-22 11:00N 52°16' W 007°02'0 0.0
2017-May-22 10:29N 52°16' W 007°02'0 0.0
2017-May-22 10:00N 52°16' W 007°02'0 0.0
2017-May-22 09:30N 52°16' W 007°02'0 0.0
2017-May-22 09:00N 52°16' W 007°02'0 0.0
2017-May-22 08:17N 52°16' W 007°02'0 0.0
2017-May-22 07:59N 52°16' W 007°02'0 0.0
2017-May-22 07:29N 52°16' W 007°02'0 0.0
2017-May-22 07:00N 52°16' W 007°02'0 0.0
2017-May-22 06:29N 52°16' W 007°02'0 0.0
2017-May-22 05:59N 52°16' W 007°02'0 0.0
2017-May-22 05:30N 52°16' W 007°02'2 3.1
2017-May-22 05:00N 52°16' W 006°59'4 7.1
2017-May-22 04:31N 52°13' W 006°56'5 9.1
2017-May-22 04:01N 52°09' W 006°58'5 9.1
2017-May-22 03:31N 52°04' W 006°58'5 9.3
2017-May-22 03:01N 51°59' W 006°57'4 8.9
2017-May-22 02:31N 51°55' W 006°56'5 9.0
2017-May-22 02:01N 51°50' W 006°55'510.3
2017-May-22 01:31N 51°45' W 006°54'2610.1
2017-May-21 22:57N 51°20' W 006°50'109 9.9
2017-May-21 11:53N 49°31' W 006°32'1510.2
2017-May-21 10:25N 49°17' W 006°26'510.3
2017-May-21 09:58N 49°12' W 006°24'610.6
2017-May-21 09:26N 49°07' W 006°21'710.8
2017-May-21 08:49N 49°00' W 006°19'2010.5
2017-May-21 06:54N 48°41' W 006°13'1310.3
2017-May-21 05:38N 48°28' W 006°09'19 9.8
2017-May-21 03:38N 48°09' W 005°59'7 9.9
2017-May-21 02:58N 48°04' W 005°54'324 9.8
2017-May-19 18:04N 43°35' W 001°35'1 9.2
2017-May-19 18:00N 43°35' W 001°34'4 0.3
2017-May-19 04:58N 43°32' W 001°30'0 0.0
2017-May-19 04:22N 43°32' W 001°30'0 0.0
2017-May-19 02:43N 43°32' W 001°30'0 0.0
2017-May-19 02:04N 43°32' W 001°30'0 0.1
2017-May-19 01:58N 43°32' W 001°30'0 0.0
2017-May-19 01:22N 43°32' W 001°30'0 0.0
2017-May-19 00:58N 43°32' W 001°30'0 0.0
2017-May-18 20:58N 43°32' W 001°30'0 0.0
2017-May-18 13:49N 43°32' W 001°30'0 0.0
2017-May-18 13:19N 43°32' W 001°30'0 0.0
2017-May-18 11:25N 43°32' W 001°30'0 0.0
2017-May-18 10:58N 43°32' W 001°30'0 0.0
2017-May-18 10:28N 43°32' W 001°30'0 0.0
2017-May-18 09:55N 43°32' W 001°30'0 0.0
2017-May-18 09:25N 43°32' W 001°30'0 0.0
2017-May-18 08:55N 43°32' W 001°30'0 0.0
2017-May-18 08:28N 43°32' W 001°30'0 0.0
2017-May-18 07:58N 43°32' W 001°30'0 0.0
2017-May-18 07:28N 43°32' W 001°30'0 0.0
2017-May-18 06:58N 43°32' W 001°30'0 0.0
2017-May-18 06:25N 43°32' W 001°30'0 0.0
2017-May-18 05:58N 43°32' W 001°30'0 0.0
2017-May-18 05:25N 43°32' W 001°30'0 0.0
2017-May-18 03:23N 43°32' W 001°30'2 5.0
2017-May-18 02:59N 43°32' W 001°33'2 4.1
2017-May-18 02:30N 43°34' W 001°33'0 0.4
2017-May-18 02:00N 43°34' W 001°34'4 8.9
2017-May-18 01:30N 43°34' W 001°40'510.3
2017-May-18 01:00N 43°34' W 001°47'  
Track history (hours):
 
Tides and Currents Weather Stations Pressure Air Temp Water Temp Dewpoint Dewpoint Depression Visibility Wind Speed Wind Dir Waves Ship Positions

Arklow Raider

Last reported at 2017-May-23 10:00 UTC. Time now 2017-May-27 21:22 UTC.
Position N 51°35' W 010°20'.

Length 90 m; draft 4 m.

Type: Cargo ship. MMSI: 250001268.

Date/timePositionNaut miles runAvg speedWind from/ knotsBaromVisibWave heightAir tempDewpointWater temp
2017-May-23 10:00N 51°35' W 010°20'611.7
2017-May-23 09:31N 51°32' W 010°12'611.5
2017-May-23 09:01N 51°29' W 010°04'611.5
2017-May-23 08:31N 51°26' W 009°55'611.6
2017-May-23 08:00N 51°23' W 009°47'611.8
2017-May-23 07:31N 51°21' W 009°39'611.4
2017-May-23 07:00N 51°22' W 009°30'611.4
2017-May-23 06:31N 51°23' W 009°21'611.4
2017-May-23 06:00N 51°25' W 009°13'611.4
2017-May-23 05:30N 51°27' W 009°04'611.2
2017-May-23 05:00N 51°29' W 008°56'611.3
2017-May-23 04:31N 51°31' W 008°47'510.9
2017-May-23 04:00N 51°33' W 008°39'510.7
2017-May-23 03:31N 51°34' W 008°31'510.5
2017-May-23 03:00N 51°37' W 008°23'510.6
2017-May-23 02:30N 51°40' W 008°16'510.8
2017-May-23 02:00N 51°42' W 008°08'510.8
2017-May-23 01:30N 51°45' W 008°01'510.5
2017-May-23 01:00N 51°48' W 007°53'510.9
2017-May-23 00:30N 51°50' W 007°46'611.1
2017-May-23 00:01N 51°53' W 007°38'611.4
2017-May-22 23:30N 51°56' W 007°30'611.6
2017-May-22 23:00N 51°59' W 007°22'611.6
2017-May-22 22:30N 52°02' W 007°14'611.5
2017-May-22 22:01N 52°05' W 007°06'611.4
2017-May-22 21:31N 52°08' W 006°58'5 9.8
2017-May-22 21:00N 52°13' W 006°56'4 8.7
2017-May-22 20:30N 52°16' W 007°01'1 1.0
2017-May-22 20:00N 52°16' W 007°02'0 0.0
2017-May-22 19:27N 52°16' W 007°02'0 0.0
2017-May-22 19:00N 52°16' W 007°02'0 0.0
2017-May-22 18:27N 52°16' W 007°02'0 0.0
2017-May-22 17:57N 52°16' W 007°02'0 0.0
2017-May-22 17:30N 52°16' W 007°02'0 0.0
2017-May-22 17:00N 52°16' W 007°02'0 0.0
2017-May-22 16:30N 52°16' W 007°02'0 0.0
2017-May-22 16:00N 52°16' W 007°02'0 0.0
2017-May-22 15:30N 52°16' W 007°02'0 0.0
2017-May-22 14:54N 52°16' W 007°02'0 0.0
2017-May-22 13:59N 52°16' W 007°02'0 0.0
2017-May-22 13:27N 52°16' W 007°02'0 0.0
2017-May-22 12:59N 52°16' W 007°02'0 0.0
2017-May-22 12:29N 52°16' W 007°02'0 0.0
2017-May-22 12:00N 52°16' W 007°02'0 0.0
2017-May-22 11:29N 52°16' W 007°02'0 0.0
2017-May-22 11:00N 52°16' W 007°02'0 0.0
2017-May-22 10:29N 52°16' W 007°02'0 0.0
2017-May-22 10:00N 52°16' W 007°02'0 0.0
2017-May-22 09:30N 52°16' W 007°02'0 0.0
2017-May-22 09:00N 52°16' W 007°02'0 0.0
2017-May-22 08:17N 52°16' W 007°02'0 0.0
2017-May-22 07:59N 52°16' W 007°02'0 0.0
2017-May-22 07:29N 52°16' W 007°02'0 0.0
2017-May-22 07:00N 52°16' W 007°02'0 0.0
2017-May-22 06:29N 52°16' W 007°02'0 0.0
2017-May-22 05:59N 52°16' W 007°02'0 0.0
2017-May-22 05:30N 52°16' W 007°02'2 3.1
2017-May-22 05:00N 52°16' W 006°59'4 7.1
2017-May-22 04:31N 52°13' W 006°56'5 9.1
2017-May-22 04:01N 52°09' W 006°58'5 9.1
2017-May-22 03:31N 52°04' W 006°58'5 9.3
2017-May-22 03:01N 51°59' W 006°57'4 8.9
2017-May-22 02:31N 51°55' W 006°56'5 9.0
2017-May-22 02:01N 51°50' W 006°55'510.3
2017-May-22 01:31N 51°45' W 006°54'2610.1
2017-May-21 22:57N 51°20' W 006°50'109 9.9
2017-May-21 11:53N 49°31' W 006°32'1510.2
2017-May-21 10:25N 49°17' W 006°26'510.3
2017-May-21 09:58N 49°12' W 006°24'610.6
2017-May-21 09:26N 49°07' W 006°21'710.8
2017-May-21 08:49N 49°00' W 006°19'2010.5
2017-May-21 06:54N 48°41' W 006°13'1310.3
2017-May-21 05:38N 48°28' W 006°09'19 9.8
2017-May-21 03:38N 48°09' W 005°59'7 9.9
2017-May-21 02:58N 48°04' W 005°54'324 9.8
2017-May-19 18:04N 43°35' W 001°35'1 9.2
2017-May-19 18:00N 43°35' W 001°34'4 0.3
2017-May-19 04:58N 43°32' W 001°30'0 0.0
2017-May-19 04:22N 43°32' W 001°30'0 0.0
2017-May-19 02:43N 43°32' W 001°30'0 0.0
2017-May-19 02:04N 43°32' W 001°30'0 0.1
2017-May-19 01:58N 43°32' W 001°30'0 0.0
2017-May-19 01:22N 43°32' W 001°30'0 0.0
2017-May-19 00:58N 43°32' W 001°30'0 0.0
2017-May-18 20:58N 43°32' W 001°30'0 0.0
2017-May-18 13:49N 43°32' W 001°30'0 0.0
2017-May-18 13:19N 43°32' W 001°30'0 0.0
2017-May-18 11:25N 43°32' W 001°30'0 0.0
2017-May-18 10:58N 43°32' W 001°30'0 0.0
2017-May-18 10:28N 43°32' W 001°30'0 0.0
2017-May-18 09:55N 43°32' W 001°30'0 0.0
2017-May-18 09:25N 43°32' W 001°30'0 0.0
2017-May-18 08:55N 43°32' W 001°30'0 0.0
2017-May-18 08:28N 43°32' W 001°30'0 0.0
2017-May-18 07:58N 43°32' W 001°30'0 0.0
2017-May-18 07:28N 43°32' W 001°30'0 0.0
2017-May-18 06:58N 43°32' W 001°30'0 0.0
2017-May-18 06:25N 43°32' W 001°30'0 0.0
2017-May-18 05:58N 43°32' W 001°30'0 0.0
2017-May-18 05:25N 43°32' W 001°30'0 0.0
2017-May-18 03:23N 43°32' W 001°30'2 5.0
2017-May-18 02:59N 43°32' W 001°33'2 4.1
2017-May-18 02:30N 43°34' W 001°33'0 0.4
2017-May-18 02:00N 43°34' W 001°34'4 8.9
2017-May-18 01:30N 43°34' W 001°40'510.3
2017-May-18 01:00N 43°34' W 001°47'  

Dump ship's entire track history